Finlandia — OJPP — position and weather

sailwx.info

Track history (hours):
 
Tides and Currents Weather Stations Pressure Air Temp Water Temp Dewpoint Dewpoint Depression Visibility Wind Speed Wind Dir Waves Ship Positions

Finlandia

Last reported at 2015-Jan-29 17:33 UTC. Time now 2015-Jan-29 20:28 UTC.
Position N 59°40' E 024°41'.

Length 175 m; draft 7 m.

Type: Passenger vessel. MMSI: 230628000.

Date/timePositionNaut miles runAvg speedWind from/ knotsBaromVisibWave heightAir tempDewpointWater temp
2015-Jan-29 17:33N 59°40' E 024°41'1312.4
2015-Jan-29 16:29N 59°27' E 024°46'1 0.7
2015-Jan-29 15:33N 59°27' E 024°47'2322.6
2015-Jan-29 14:33N 59°50' E 024°48'1 0.2
2015-Jan-29 11:12N 59°50' E 024°48'1320.7
2015-Jan-29 10:34N 59°37' E 024°41'1110.9
2015-Jan-29 09:33N 59°27' E 024°46'3 2.6
2015-Jan-29 08:34N 59°29' E 024°45'9 0.6
2015-Jan-28 17:34N 59°39' E 024°43'1211.5
2015-Jan-28 16:31N 59°27' E 024°46'1 0.9
2015-Jan-28 15:33N 59°27' E 024°47'1919.3
2015-Jan-28 14:34N 59°47' E 024°49'22 9.1
2015-Jan-28 12:08N 60°08' E 024°54'1920.4
2015-Jan-28 11:12N 59°50' E 024°46'1522.4
2015-Jan-28 10:34N 59°36' E 024°41'9 9.4
2015-Jan-28 09:33N 59°27' E 024°46'3 2.6
2015-Jan-28 08:34N 59°29' E 024°45'2019.5
2015-Jan-28 07:33N 59°49' E 024°49'2019.8
2015-Jan-28 06:33N 60°09' E 024°54'27 2.1
2015-Jan-27 17:33N 59°42' E 024°46'1514.9
2015-Jan-27 16:33N 59°27' E 024°46'0 0.4
2015-Jan-27 15:33N 59°27' E 024°47'2020.1
2015-Jan-27 14:33N 59°47' E 024°45'22 9.2
2015-Jan-27 12:10N 60°09' E 024°54'2219.8
2015-Jan-27 11:04N 59°47' E 024°45'8 2.8
2015-Jan-27 08:05N 59°39' E 024°42'1823.6
2015-Jan-27 07:20N 59°55' E 024°55'16 1.2
2015-Jan-26 17:33N 59°40' E 024°44'1413.5
2015-Jan-26 16:33N 59°27' E 024°46'0 0.4
2015-Jan-26 15:33N 59°27' E 024°47'2120.8
2015-Jan-26 14:33N 59°48' E 024°45'21 8.8
2015-Jan-26 12:07N 60°09' E 024°54'1218.4
2015-Jan-26 11:29N 59°57' E 024°56'1921.0
2015-Jan-26 10:34N 59°39' E 024°43'1212.0
2015-Jan-26 09:33N 59°27' E 024°46'2 2.5
2015-Jan-26 08:33N 59°29' E 024°45'1919.5
2015-Jan-26 07:33N 59°49' E 024°47'2019.4
2015-Jan-26 06:31N 60°09' E 024°54'28 2.2
2015-Jan-25 17:34N 59°41' E 024°45'1414.0
2015-Jan-25 16:33N 59°27' E 024°46'1 0.8
2015-Jan-25 15:34N 59°27' E 024°47'2424.3
2015-Jan-25 14:34N 59°52' E 024°49'0 0.1
2015-Jan-25 11:17N 59°51' E 024°49'1723.9
2015-Jan-25 10:34N 59°34' E 024°43'7 7.5
2015-Jan-25 09:33N 59°27' E 024°46'0 0.0
2015-Jan-25 08:31N 59°27' E 024°46'0 0.0
2015-Jan-25 07:28N 59°27' E 024°46'0 0.0
2015-Jan-25 06:31N 59°27' E 024°46'0 0.0
2015-Jan-25 05:31N 59°27' E 024°46'0 0.0
2015-Jan-25 04:25N 59°27' E 024°46'0 0.0
2015-Jan-25 03:31N 59°27' E 024°46'0 0.0
2015-Jan-25 02:31N 59°27' E 024°46'0 0.0
2015-Jan-25 01:31N 59°27' E 024°46'0 0.0
2015-Jan-25 00:31N 59°27' E 024°46'0 0.0
2015-Jan-24 23:31N 59°27' E 024°46'0 0.0
2015-Jan-24 22:31N 59°27' E 024°46'0 0.0
2015-Jan-24 21:31N 59°27' E 024°46'0 0.0
2015-Jan-24 20:31N 59°27' E 024°46'0 0.0
2015-Jan-24 19:31N 59°27' E 024°46'0 0.0
2015-Jan-24 18:31N 59°27' E 024°46'0 0.0
2015-Jan-24 17:31N 59°27' E 024°46'0 0.0
2015-Jan-24 16:31N 59°27' E 024°46'0 0.0
2015-Jan-24 15:32N 59°27' E 024°46'0 0.0
2015-Jan-24 13:29N 59°27' E 024°46'0 0.0
2015-Jan-24 12:32N 59°27' E 024°46'0 0.0
2015-Jan-24 11:33N 59°27' E 024°46'5 5.0
2015-Jan-24 10:33N 59°32' E 024°43'5 5.0
2015-Jan-24 09:33N 59°27' E 024°46'5 5.5
2015-Jan-24 08:33N 59°32' E 024°43'3222.9
2015-Jan-24 07:09N 60°04' E 024°53'25 1.9
2015-Jan-23 17:34N 59°39' E 024°43'1212.1
2015-Jan-23 16:33N 59°27' E 024°46'2 1.7
2015-Jan-23 15:33N 59°28' E 024°46'2221.8
2015-Jan-23 14:33N 59°50' E 024°47'19 8.0
2015-Jan-23 12:14N 60°09' E 024°54'1819.9
2015-Jan-23 11:19N 59°51' E 024°48'1620.8
2015-Jan-23 10:33N 59°35' E 024°42'9 8.4
2015-Jan-23 09:31N 59°27' E 024°46'3 3.5
2015-Jan-23 08:34N 59°30' E 024°45'3323.9
2015-Jan-23 07:10N 60°03' E 024°54'6 1.8
2015-Jan-23 04:04N 60°09' E 024°54'3011.8
2015-Jan-23 01:31N 59°48' E 024°11'1 1.4
2015-Jan-23 00:34N 59°47' E 024°10'2019.7
2015-Jan-22 23:31N 59°48' E 024°50'1919.7
2015-Jan-22 22:33N 59°42' E 024°14'2524.4
2015-Jan-22 21:33N 59°34' E 023°29'5222.9
2015-Jan-22 19:16N 59°29' E 021°46'1419.4
2015-Jan-22 18:34N 59°37' E 021°23'1313.1
2015-Jan-22 17:33N 59°50' E 021°23'  
Track history (hours):
 
Tides and Currents Weather Stations Pressure Air Temp Water Temp Dewpoint Dewpoint Depression Visibility Wind Speed Wind Dir Waves Ship Positions

Finlandia

Last reported at 2015-Jan-29 17:33 UTC. Time now 2015-Jan-29 20:28 UTC.
Position N 59°40' E 024°41'.

Length 175 m; draft 7 m.

Type: Passenger vessel. MMSI: 230628000.

Date/timePositionNaut miles runAvg speedWind from/ knotsBaromVisibWave heightAir tempDewpointWater temp
2015-Jan-29 17:33N 59°40' E 024°41'1312.4
2015-Jan-29 16:29N 59°27' E 024°46'1 0.7
2015-Jan-29 15:33N 59°27' E 024°47'2322.6
2015-Jan-29 14:33N 59°50' E 024°48'1 0.2
2015-Jan-29 11:12N 59°50' E 024°48'1320.7
2015-Jan-29 10:34N 59°37' E 024°41'1110.9
2015-Jan-29 09:33N 59°27' E 024°46'3 2.6
2015-Jan-29 08:34N 59°29' E 024°45'9 0.6
2015-Jan-28 17:34N 59°39' E 024°43'1211.5
2015-Jan-28 16:31N 59°27' E 024°46'1 0.9
2015-Jan-28 15:33N 59°27' E 024°47'1919.3
2015-Jan-28 14:34N 59°47' E 024°49'22 9.1
2015-Jan-28 12:08N 60°08' E 024°54'1920.4
2015-Jan-28 11:12N 59°50' E 024°46'1522.4
2015-Jan-28 10:34N 59°36' E 024°41'9 9.4
2015-Jan-28 09:33N 59°27' E 024°46'3 2.6
2015-Jan-28 08:34N 59°29' E 024°45'2019.5
2015-Jan-28 07:33N 59°49' E 024°49'2019.8
2015-Jan-28 06:33N 60°09' E 024°54'27 2.1
2015-Jan-27 17:33N 59°42' E 024°46'1514.9
2015-Jan-27 16:33N 59°27' E 024°46'0 0.4
2015-Jan-27 15:33N 59°27' E 024°47'2020.1
2015-Jan-27 14:33N 59°47' E 024°45'22 9.2
2015-Jan-27 12:10N 60°09' E 024°54'2219.8
2015-Jan-27 11:04N 59°47' E 024°45'8 2.8
2015-Jan-27 08:05N 59°39' E 024°42'1823.6
2015-Jan-27 07:20N 59°55' E 024°55'16 1.2
2015-Jan-26 17:33N 59°40' E 024°44'1413.5
2015-Jan-26 16:33N 59°27' E 024°46'0 0.4
2015-Jan-26 15:33N 59°27' E 024°47'2120.8
2015-Jan-26 14:33N 59°48' E 024°45'21 8.8
2015-Jan-26 12:07N 60°09' E 024°54'1218.4
2015-Jan-26 11:29N 59°57' E 024°56'1921.0
2015-Jan-26 10:34N 59°39' E 024°43'1212.0
2015-Jan-26 09:33N 59°27' E 024°46'2 2.5
2015-Jan-26 08:33N 59°29' E 024°45'1919.5
2015-Jan-26 07:33N 59°49' E 024°47'2019.4
2015-Jan-26 06:31N 60°09' E 024°54'28 2.2
2015-Jan-25 17:34N 59°41' E 024°45'1414.0
2015-Jan-25 16:33N 59°27' E 024°46'1 0.8
2015-Jan-25 15:34N 59°27' E 024°47'2424.3
2015-Jan-25 14:34N 59°52' E 024°49'0 0.1
2015-Jan-25 11:17N 59°51' E 024°49'1723.9
2015-Jan-25 10:34N 59°34' E 024°43'7 7.5
2015-Jan-25 09:33N 59°27' E 024°46'0 0.0
2015-Jan-25 08:31N 59°27' E 024°46'0 0.0
2015-Jan-25 07:28N 59°27' E 024°46'0 0.0
2015-Jan-25 06:31N 59°27' E 024°46'0 0.0
2015-Jan-25 05:31N 59°27' E 024°46'0 0.0
2015-Jan-25 04:25N 59°27' E 024°46'0 0.0
2015-Jan-25 03:31N 59°27' E 024°46'0 0.0
2015-Jan-25 02:31N 59°27' E 024°46'0 0.0
2015-Jan-25 01:31N 59°27' E 024°46'0 0.0
2015-Jan-25 00:31N 59°27' E 024°46'0 0.0
2015-Jan-24 23:31N 59°27' E 024°46'0 0.0
2015-Jan-24 22:31N 59°27' E 024°46'0 0.0
2015-Jan-24 21:31N 59°27' E 024°46'0 0.0
2015-Jan-24 20:31N 59°27' E 024°46'0 0.0
2015-Jan-24 19:31N 59°27' E 024°46'0 0.0
2015-Jan-24 18:31N 59°27' E 024°46'0 0.0
2015-Jan-24 17:31N 59°27' E 024°46'0 0.0
2015-Jan-24 16:31N 59°27' E 024°46'0 0.0
2015-Jan-24 15:32N 59°27' E 024°46'0 0.0
2015-Jan-24 13:29N 59°27' E 024°46'0 0.0
2015-Jan-24 12:32N 59°27' E 024°46'0 0.0
2015-Jan-24 11:33N 59°27' E 024°46'5 5.0
2015-Jan-24 10:33N 59°32' E 024°43'5 5.0
2015-Jan-24 09:33N 59°27' E 024°46'5 5.5
2015-Jan-24 08:33N 59°32' E 024°43'3222.9
2015-Jan-24 07:09N 60°04' E 024°53'25 1.9
2015-Jan-23 17:34N 59°39' E 024°43'1212.1
2015-Jan-23 16:33N 59°27' E 024°46'2 1.7
2015-Jan-23 15:33N 59°28' E 024°46'2221.8
2015-Jan-23 14:33N 59°50' E 024°47'19 8.0
2015-Jan-23 12:14N 60°09' E 024°54'1819.9
2015-Jan-23 11:19N 59°51' E 024°48'1620.8
2015-Jan-23 10:33N 59°35' E 024°42'9 8.4
2015-Jan-23 09:31N 59°27' E 024°46'3 3.5
2015-Jan-23 08:34N 59°30' E 024°45'3323.9
2015-Jan-23 07:10N 60°03' E 024°54'6 1.8
2015-Jan-23 04:04N 60°09' E 024°54'3011.8
2015-Jan-23 01:31N 59°48' E 024°11'1 1.4
2015-Jan-23 00:34N 59°47' E 024°10'2019.7
2015-Jan-22 23:31N 59°48' E 024°50'1919.7
2015-Jan-22 22:33N 59°42' E 024°14'2524.4
2015-Jan-22 21:33N 59°34' E 023°29'5222.9
2015-Jan-22 19:16N 59°29' E 021°46'1419.4
2015-Jan-22 18:34N 59°37' E 021°23'1313.1
2015-Jan-22 17:33N 59°50' E 021°23'  

Dump ship's entire track history